sensor_id;sensor_type;location;lat;lon;timestamp;temperature;humidity
33881;DHT22;20172;47.530;10.256;2024-03-29T00:00:39;2.60;99.90
33881;DHT22;20172;47.530;10.256;2024-03-29T00:03:05;2.60;99.90
33881;DHT22;20172;47.530;10.256;2024-03-29T00:05:31;2.70;99.90
33881;DHT22;20172;47.530;10.256;2024-03-29T00:07:57;2.80;99.90
33881;DHT22;20172;47.530;10.256;2024-03-29T00:10:23;2.70;99.90
33881;DHT22;20172;47.530;10.256;2024-03-29T00:12:48;2.60;99.90
33881;DHT22;20172;47.530;10.256;2024-03-29T00:15:14;2.50;99.90
33881;DHT22;20172;47.530;10.256;2024-03-29T00:17:39;2.40;99.90
33881;DHT22;20172;47.530;10.256;2024-03-29T00:20:05;2.20;99.90
33881;DHT22;20172;47.530;10.256;2024-03-29T00:22:31;2.20;99.90
33881;DHT22;20172;47.530;10.256;2024-03-29T00:24:56;2.20;99.90
33881;DHT22;20172;47.530;10.256;2024-03-29T00:27:22;2.10;99.90
33881;DHT22;20172;47.530;10.256;2024-03-29T00:29:50;2.20;99.90
33881;DHT22;20172;47.530;10.256;2024-03-29T00:32:18;2.20;99.90
33881;DHT22;20172;47.530;10.256;2024-03-29T00:34:44;2.10;99.90
33881;DHT22;20172;47.530;10.256;2024-03-29T00:37:11;2.00;99.90
33881;DHT22;20172;47.530;10.256;2024-03-29T00:39:36;1.90;99.90
33881;DHT22;20172;47.530;10.256;2024-03-29T00:42:02;1.90;99.90
33881;DHT22;20172;47.530;10.256;2024-03-29T00:44:28;1.80;99.90
33881;DHT22;20172;47.530;10.256;2024-03-29T00:46:53;1.70;99.90
33881;DHT22;20172;47.530;10.256;2024-03-29T00:49:19;1.60;99.90
33881;DHT22;20172;47.530;10.256;2024-03-29T00:51:44;1.80;99.90
33881;DHT22;20172;47.530;10.256;2024-03-29T00:54:10;1.90;99.90
33881;DHT22;20172;47.530;10.256;2024-03-29T00:56:35;2.00;99.90
33881;DHT22;20172;47.530;10.256;2024-03-29T00:59:01;2.10;99.90
33881;DHT22;20172;47.530;10.256;2024-03-29T01:01:26;2.30;99.90
33881;DHT22;20172;47.530;10.256;2024-03-29T01:03:52;2.50;99.90
33881;DHT22;20172;47.530;10.256;2024-03-29T01:06:17;2.70;99.90
33881;DHT22;20172;47.530;10.256;2024-03-29T01:08:43;2.70;99.90
33881;DHT22;20172;47.530;10.256;2024-03-29T01:11:08;2.60;99.90
33881;DHT22;20172;47.530;10.256;2024-03-29T01:13:34;2.40;99.90
33881;DHT22;20172;47.530;10.256;2024-03-29T01:15:59;2.20;99.90
33881;DHT22;20172;47.530;10.256;2024-03-29T01:18:25;2.10;99.90
33881;DHT22;20172;47.530;10.256;2024-03-29T01:20:50;2.10;99.90
33881;DHT22;20172;47.530;10.256;2024-03-29T01:23:16;2.00;99.90
33881;DHT22;20172;47.530;10.256;2024-03-29T01:25:41;1.80;99.90
33881;DHT22;20172;47.530;10.256;2024-03-29T01:28:07;1.70;99.90
33881;DHT22;20172;47.530;10.256;2024-03-29T01:30:32;1.80;99.90
33881;DHT22;20172;47.530;10.256;2024-03-29T01:32:58;1.80;99.90
33881;DHT22;20172;47.530;10.256;2024-03-29T01:35:23;1.90;99.90
33881;DHT22;20172;47.530;10.256;2024-03-29T01:37:49;2.00;99.90
33881;DHT22;20172;47.530;10.256;2024-03-29T01:40:14;1.90;99.90
33881;DHT22;20172;47.530;10.256;2024-03-29T01:42:40;1.80;99.90
33881;DHT22;20172;47.530;10.256;2024-03-29T01:45:05;1.70;99.90
33881;DHT22;20172;47.530;10.256;2024-03-29T01:47:31;1.70;99.90
33881;DHT22;20172;47.530;10.256;2024-03-29T01:49:57;1.80;99.90
33881;DHT22;20172;47.530;10.256;2024-03-29T01:52:22;1.80;99.90
33881;DHT22;20172;47.530;10.256;2024-03-29T01:54:48;2.00;99.90
33881;DHT22;20172;47.530;10.256;2024-03-29T01:57:14;2.10;99.90
33881;DHT22;20172;47.530;10.256;2024-03-29T01:59:40;2.20;99.90
33881;DHT22;20172;47.530;10.256;2024-03-29T02:02:05;2.20;99.90
33881;DHT22;20172;47.530;10.256;2024-03-29T02:04:31;2.30;99.90
33881;DHT22;20172;47.530;10.256;2024-03-29T02:06:57;2.30;99.90
33881;DHT22;20172;47.530;10.256;2024-03-29T02:09:22;2.30;99.90
33881;DHT22;20172;47.530;10.256;2024-03-29T02:11:48;2.30;99.90
33881;DHT22;20172;47.530;10.256;2024-03-29T02:14:14;2.30;99.90
33881;DHT22;20172;47.530;10.256;2024-03-29T02:16:39;2.20;99.90
33881;DHT22;20172;47.530;10.256;2024-03-29T02:19:05;2.20;99.90
33881;DHT22;20172;47.530;10.256;2024-03-29T02:21:31;2.50;99.90
33881;DHT22;20172;47.530;10.256;2024-03-29T02:24:05;2.70;99.90
33881;DHT22;20172;47.530;10.256;2024-03-29T02:26:33;2.90;99.90
33881;DHT22;20172;47.530;10.256;2024-03-29T02:29:04;3.10;99.90
33881;DHT22;20172;47.530;10.256;2024-03-29T02:31:29;2.90;99.90
33881;DHT22;20172;47.530;10.256;2024-03-29T02:33:55;2.60;99.90
33881;DHT22;20172;47.530;10.256;2024-03-29T02:36:21;2.30;99.90
33881;DHT22;20172;47.530;10.256;2024-03-29T02:38:46;2.20;99.90
33881;DHT22;20172;47.530;10.256;2024-03-29T02:41:12;2.00;99.90
33881;DHT22;20172;47.530;10.256;2024-03-29T02:43:37;1.90;99.90
33881;DHT22;20172;47.530;10.256;2024-03-29T02:46:03;1.80;99.90
33881;DHT22;20172;47.530;10.256;2024-03-29T02:48:29;1.80;99.90
33881;DHT22;20172;47.530;10.256;2024-03-29T02:50:54;1.90;99.90
33881;DHT22;20172;47.530;10.256;2024-03-29T02:53:20;1.80;99.90
33881;DHT22;20172;47.530;10.256;2024-03-29T02:55:45;1.80;99.90
33881;DHT22;20172;47.530;10.256;2024-03-29T02:58:11;1.70;99.90
33881;DHT22;20172;47.530;10.256;2024-03-29T03:00:36;1.80;99.90
33881;DHT22;20172;47.530;10.256;2024-03-29T03:03:02;1.80;99.90
33881;DHT22;20172;47.530;10.256;2024-03-29T03:05:29;1.90;99.90
33881;DHT22;20172;47.530;10.256;2024-03-29T03:07:54;2.00;99.90
33881;DHT22;20172;47.530;10.256;2024-03-29T03:10:44;2.20;99.90
33881;DHT22;20172;47.530;10.256;2024-03-29T03:13:25;2.20;99.90
33881;DHT22;20172;47.530;10.256;2024-03-29T03:15:51;1.90;99.90
33881;DHT22;20172;47.530;10.256;2024-03-29T03:18:16;1.80;99.90
33881;DHT22;20172;47.530;10.256;2024-03-29T03:20:42;1.80;99.90
33881;DHT22;20172;47.530;10.256;2024-03-29T03:23:07;1.80;99.90
33881;DHT22;20172;47.530;10.256;2024-03-29T03:25:33;1.80;99.90
33881;DHT22;20172;47.530;10.256;2024-03-29T03:27:58;1.80;99.90
33881;DHT22;20172;47.530;10.256;2024-03-29T03:30:24;1.80;99.90
33881;DHT22;20172;47.530;10.256;2024-03-29T03:32:49;1.90;99.90
33881;DHT22;20172;47.530;10.256;2024-03-29T03:35:15;1.90;99.90
33881;DHT22;20172;47.530;10.256;2024-03-29T03:37:40;1.90;99.90
33881;DHT22;20172;47.530;10.256;2024-03-29T03:40:06;1.90;99.90
33881;DHT22;20172;47.530;10.256;2024-03-29T03:42:32;1.70;99.90
33881;DHT22;20172;47.530;10.256;2024-03-29T03:44:58;1.70;99.90
33881;DHT22;20172;47.530;10.256;2024-03-29T03:47:23;1.60;99.90
33881;DHT22;20172;47.530;10.256;2024-03-29T03:49:49;1.60;99.90
33881;DHT22;20172;47.530;10.256;2024-03-29T03:52:14;1.60;99.90
33881;DHT22;20172;47.530;10.256;2024-03-29T03:54:40;1.60;99.90
33881;DHT22;20172;47.530;10.256;2024-03-29T03:57:06;1.60;99.90
33881;DHT22;20172;47.530;10.256;2024-03-29T03:59:31;1.70;99.90
33881;DHT22;20172;47.530;10.256;2024-03-29T04:01:57;1.70;99.90
33881;DHT22;20172;47.530;10.256;2024-03-29T04:04:22;1.90;99.90
33881;DHT22;20172;47.530;10.256;2024-03-29T04:06:48;1.90;99.90
33881;DHT22;20172;47.530;10.256;2024-03-29T04:09:16;1.80;99.90
33881;DHT22;20172;47.530;10.256;2024-03-29T04:11:43;1.60;99.90
33881;DHT22;20172;47.530;10.256;2024-03-29T04:14:08;1.60;99.90
33881;DHT22;20172;47.530;10.256;2024-03-29T04:16:34;1.70;99.90
33881;DHT22;20172;47.530;10.256;2024-03-29T04:18:59;1.60;99.90
33881;DHT22;20172;47.530;10.256;2024-03-29T04:21:25;1.60;99.90
33881;DHT22;20172;47.530;10.256;2024-03-29T04:23:50;1.50;99.90
33881;DHT22;20172;47.530;10.256;2024-03-29T04:26:16;1.40;99.90
33881;DHT22;20172;47.530;10.256;2024-03-29T04:28:41;1.50;99.90
33881;DHT22;20172;47.530;10.256;2024-03-29T04:31:07;1.50;99.90
33881;DHT22;20172;47.530;10.256;2024-03-29T04:33:32;1.60;99.90
33881;DHT22;20172;47.530;10.256;2024-03-29T04:36:01;1.60;99.90
33881;DHT22;20172;47.530;10.256;2024-03-29T04:38:27;1.60;99.90
33881;DHT22;20172;47.530;10.256;2024-03-29T04:40:54;1.70;99.90
33881;DHT22;20172;47.530;10.256;2024-03-29T04:43:22;1.90;99.90
33881;DHT22;20172;47.530;10.256;2024-03-29T04:45:47;2.00;99.90
33881;DHT22;20172;47.530;10.256;2024-03-29T04:48:13;2.10;99.90
33881;DHT22;20172;47.530;10.256;2024-03-29T04:50:39;2.10;99.90
33881;DHT22;20172;47.530;10.256;2024-03-29T04:53:04;2.00;99.90
33881;DHT22;20172;47.530;10.256;2024-03-29T04:55:30;1.90;99.90
33881;DHT22;20172;47.530;10.256;2024-03-29T04:57:56;1.80;99.90
33881;DHT22;20172;47.530;10.256;2024-03-29T05:00:21;1.70;99.90
33881;DHT22;20172;47.530;10.256;2024-03-29T05:02:47;1.70;99.90
33881;DHT22;20172;47.530;10.256;2024-03-29T05:05:12;1.70;99.90
33881;DHT22;20172;47.530;10.256;2024-03-29T05:07:38;1.80;99.90
33881;DHT22;20172;47.530;10.256;2024-03-29T05:10:03;2.00;99.90
33881;DHT22;20172;47.530;10.256;2024-03-29T05:12:32;2.20;99.90
33881;DHT22;20172;47.530;10.256;2024-03-29T05:14:57;2.30;99.90
33881;DHT22;20172;47.530;10.256;2024-03-29T05:17:23;2.40;99.90
33881;DHT22;20172;47.530;10.256;2024-03-29T05:19:52;2.40;99.90
33881;DHT22;20172;47.530;10.256;2024-03-29T05:22:17;2.40;99.90
33881;DHT22;20172;47.530;10.256;2024-03-29T05:24:43;2.50;99.90
33881;DHT22;20172;47.530;10.256;2024-03-29T05:27:08;2.50;99.90
33881;DHT22;20172;47.530;10.256;2024-03-29T05:29:34;2.50;99.90
33881;DHT22;20172;47.530;10.256;2024-03-29T05:31:59;2.60;99.90
33881;DHT22;20172;47.530;10.256;2024-03-29T05:34:25;2.70;99.90
33881;DHT22;20172;47.530;10.256;2024-03-29T05:36:50;2.80;99.90
33881;DHT22;20172;47.530;10.256;2024-03-29T05:39:16;2.80;99.90
33881;DHT22;20172;47.530;10.256;2024-03-29T05:41:44;2.90;99.90
33881;DHT22;20172;47.530;10.256;2024-03-29T05:44:09;2.90;99.90
33881;DHT22;20172;47.530;10.256;2024-03-29T05:46:35;2.90;99.90
33881;DHT22;20172;47.530;10.256;2024-03-29T05:49:00;2.80;99.90
33881;DHT22;20172;47.530;10.256;2024-03-29T05:51:26;2.70;99.90
33881;DHT22;20172;47.530;10.256;2024-03-29T05:53:51;2.70;99.90
33881;DHT22;20172;47.530;10.256;2024-03-29T05:56:17;2.80;99.90
33881;DHT22;20172;47.530;10.256;2024-03-29T05:58:42;2.80;99.90
33881;DHT22;20172;47.530;10.256;2024-03-29T06:01:08;2.90;99.90
33881;DHT22;20172;47.530;10.256;2024-03-29T06:03:33;2.90;99.90
33881;DHT22;20172;47.530;10.256;2024-03-29T06:05:59;3.00;99.90
33881;DHT22;20172;47.530;10.256;2024-03-29T06:08:24;3.30;99.90
33881;DHT22;20172;47.530;10.256;2024-03-29T06:10:52;3.50;99.90
33881;DHT22;20172;47.530;10.256;2024-03-29T06:13:18;3.70;99.90
33881;DHT22;20172;47.530;10.256;2024-03-29T06:15:55;4.00;99.90
33881;DHT22;20172;47.530;10.256;2024-03-29T06:18:39;4.40;99.90
33881;DHT22;20172;47.530;10.256;2024-03-29T06:21:05;4.60;99.90
33881;DHT22;20172;47.530;10.256;2024-03-29T06:23:30;4.90;99.90
33881;DHT22;20172;47.530;10.256;2024-03-29T06:25:56;5.10;99.90
33881;DHT22;20172;47.530;10.256;2024-03-29T06:28:21;5.40;99.90
33881;DHT22;20172;47.530;10.256;2024-03-29T06:30:47;5.70;99.90
33881;DHT22;20172;47.530;10.256;2024-03-29T06:33:12;5.90;99.90
33881;DHT22;20172;47.530;10.256;2024-03-29T06:35:38;6.10;99.90
33881;DHT22;20172;47.530;10.256;2024-03-29T06:38:03;6.30;99.90
33881;DHT22;20172;47.530;10.256;2024-03-29T06:40:29;6.50;99.90
33881;DHT22;20172;47.530;10.256;2024-03-29T06:42:54;6.60;99.90
33881;DHT22;20172;47.530;10.256;2024-03-29T06:45:23;6.80;99.90
33881;DHT22;20172;47.530;10.256;2024-03-29T06:47:48;6.90;99.90
33881;DHT22;20172;47.530;10.256;2024-03-29T06:50:14;7.00;99.90
33881;DHT22;20172;47.530;10.256;2024-03-29T06:52:39;7.30;99.90
33881;DHT22;20172;47.530;10.256;2024-03-29T06:55:05;7.40;99.90
33881;DHT22;20172;47.530;10.256;2024-03-29T06:57:31;7.50;99.90
33881;DHT22;20172;47.530;10.256;2024-03-29T06:59:57;7.60;99.90
33881;DHT22;20172;47.530;10.256;2024-03-29T07:02:23;7.60;99.90
33881;DHT22;20172;47.530;10.256;2024-03-29T07:04:48;7.50;99.90
33881;DHT22;20172;47.530;10.256;2024-03-29T07:07:14;7.60;99.90
33881;DHT22;20172;47.530;10.256;2024-03-29T07:09:39;7.60;99.90
33881;DHT22;20172;47.530;10.256;2024-03-29T07:12:05;7.70;99.90
33881;DHT22;20172;47.530;10.256;2024-03-29T07:14:31;7.90;99.90
33881;DHT22;20172;47.530;10.256;2024-03-29T07:16:58;8.10;99.90
33881;DHT22;20172;47.530;10.256;2024-03-29T07:19:24;8.30;99.90
33881;DHT22;20172;47.530;10.256;2024-03-29T07:21:50;8.50;99.90
33881;DHT22;20172;47.530;10.256;2024-03-29T07:24:18;8.70;99.90
33881;DHT22;20172;47.530;10.256;2024-03-29T07:26:44;9.10;99.90
33881;DHT22;20172;47.530;10.256;2024-03-29T07:29:13;9.50;99.90
33881;DHT22;20172;47.530;10.256;2024-03-29T07:31:38;9.70;99.90
33881;DHT22;20172;47.530;10.256;2024-03-29T07:34:04;9.80;99.90
33881;DHT22;20172;47.530;10.256;2024-03-29T07:36:29;9.90;99.90
33881;DHT22;20172;47.530;10.256;2024-03-29T07:39:00;10.10;99.90
33881;DHT22;20172;47.530;10.256;2024-03-29T07:41:26;10.40;99.90
33881;DHT22;20172;47.530;10.256;2024-03-29T07:43:55;10.50;99.90
33881;DHT22;20172;47.530;10.256;2024-03-29T07:46:38;10.70;99.90
33881;DHT22;20172;47.530;10.256;2024-03-29T07:49:05;11.00;99.90
33881;DHT22;20172;47.530;10.256;2024-03-29T07:51:31;11.20;99.90
33881;DHT22;20172;47.530;10.256;2024-03-29T07:53:56;11.30;99.90
33881;DHT22;20172;47.530;10.256;2024-03-29T07:56:22;11.50;99.90
33881;DHT22;20172;47.530;10.256;2024-03-29T07:58:54;11.80;99.90
33881;DHT22;20172;47.530;10.256;2024-03-29T08:01:20;12.30;99.90
33881;DHT22;20172;47.530;10.256;2024-03-29T08:03:46;12.70;99.90
33881;DHT22;20172;47.530;10.256;2024-03-29T08:06:11;12.80;99.90
33881;DHT22;20172;47.530;10.256;2024-03-29T08:08:37;12.90;99.90
33881;DHT22;20172;47.530;10.256;2024-03-29T08:11:02;13.00;99.90
33881;DHT22;20172;47.530;10.256;2024-03-29T08:13:28;13.20;99.90
33881;DHT22;20172;47.530;10.256;2024-03-29T08:15:57;13.40;99.90
33881;DHT22;20172;47.530;10.256;2024-03-29T08:18:23;13.50;99.90
33881;DHT22;20172;47.530;10.256;2024-03-29T08:20:49;13.90;99.90
33881;DHT22;20172;47.530;10.256;2024-03-29T08:23:14;14.10;99.90
33881;DHT22;20172;47.530;10.256;2024-03-29T08:25:40;14.40;99.90
33881;DHT22;20172;47.530;10.256;2024-03-29T08:28:05;14.30;99.90
33881;DHT22;20172;47.530;10.256;2024-03-29T08:30:31;14.30;99.90
33881;DHT22;20172;47.530;10.256;2024-03-29T08:33:03;14.50;99.90
33881;DHT22;20172;47.530;10.256;2024-03-29T08:35:32;14.60;99.90
33881;DHT22;20172;47.530;10.256;2024-03-29T08:37:58;14.60;99.90
33881;DHT22;20172;47.530;10.256;2024-03-29T08:40:24;14.80;99.90
33881;DHT22;20172;47.530;10.256;2024-03-29T08:42:51;14.60;99.90
33881;DHT22;20172;47.530;10.256;2024-03-29T08:45:16;14.70;99.90
33881;DHT22;20172;47.530;10.256;2024-03-29T08:47:42;14.60;99.90
33881;DHT22;20172;47.530;10.256;2024-03-29T08:50:07;14.70;99.90
33881;DHT22;20172;47.530;10.256;2024-03-29T08:52:33;14.50;99.90
33881;DHT22;20172;47.530;10.256;2024-03-29T08:54:59;14.80;99.90
33881;DHT22;20172;47.530;10.256;2024-03-29T08:57:24;14.90;99.90
33881;DHT22;20172;47.530;10.256;2024-03-29T08:59:50;15.10;99.90
33881;DHT22;20172;47.530;10.256;2024-03-29T09:02:15;15.20;99.90
33881;DHT22;20172;47.530;10.256;2024-03-29T09:04:41;15.50;99.90
33881;DHT22;20172;47.530;10.256;2024-03-29T09:07:07;15.40;99.90
33881;DHT22;20172;47.530;10.256;2024-03-29T09:09:32;15.40;99.90
33881;DHT22;20172;47.530;10.256;2024-03-29T09:11:58;15.60;99.90
33881;DHT22;20172;47.530;10.256;2024-03-29T09:14:23;15.80;99.90
33881;DHT22;20172;47.530;10.256;2024-03-29T09:16:50;16.20;99.90
33881;DHT22;20172;47.530;10.256;2024-03-29T09:19:16;16.20;99.90
33881;DHT22;20172;47.530;10.256;2024-03-29T09:21:41;16.30;99.90
33881;DHT22;20172;47.530;10.256;2024-03-29T09:24:07;16.40;99.90
33881;DHT22;20172;47.530;10.256;2024-03-29T09:26:35;16.50;99.90
33881;DHT22;20172;47.530;10.256;2024-03-29T09:29:02;16.50;99.90
33881;DHT22;20172;47.530;10.256;2024-03-29T09:31:27;16.60;99.90
33881;DHT22;20172;47.530;10.256;2024-03-29T09:33:53;16.80;99.90
33881;DHT22;20172;47.530;10.256;2024-03-29T09:36:22;17.00;99.90
33881;DHT22;20172;47.530;10.256;2024-03-29T09:38:49;17.00;99.90
33881;DHT22;20172;47.530;10.256;2024-03-29T09:41:15;17.20;99.90
33881;DHT22;20172;47.530;10.256;2024-03-29T09:43:41;17.20;99.90
33881;DHT22;20172;47.530;10.256;2024-03-29T09:46:08;17.40;99.90
33881;DHT22;20172;47.530;10.256;2024-03-29T09:48:34;17.50;99.90
33881;DHT22;20172;47.530;10.256;2024-03-29T09:51:08;17.70;99.90
33881;DHT22;20172;47.530;10.256;2024-03-29T09:53:35;17.80;99.90
33881;DHT22;20172;47.530;10.256;2024-03-29T09:56:04;17.90;99.90
33881;DHT22;20172;47.530;10.256;2024-03-29T09:58:31;18.00;99.90
33881;DHT22;20172;47.530;10.256;2024-03-29T10:00:57;18.00;99.90
33881;DHT22;20172;47.530;10.256;2024-03-29T10:03:25;18.20;99.90
33881;DHT22;20172;47.530;10.256;2024-03-29T10:05:58;18.40;99.90
33881;DHT22;20172;47.530;10.256;2024-03-29T10:08:27;18.60;99.90
33881;DHT22;20172;47.530;10.256;2024-03-29T10:10:55;18.50;99.90
33881;DHT22;20172;47.530;10.256;2024-03-29T10:13:20;18.60;99.90
33881;DHT22;20172;47.530;10.256;2024-03-29T10:15:46;18.60;99.90
33881;DHT22;20172;47.530;10.256;2024-03-29T10:18:15;18.40;99.90
33881;DHT22;20172;47.530;10.256;2024-03-29T10:20:43;18.10;99.90
33881;DHT22;20172;47.530;10.256;2024-03-29T10:23:09;18.20;99.90
33881;DHT22;20172;47.530;10.256;2024-03-29T10:25:34;18.40;99.90
33881;DHT22;20172;47.530;10.256;2024-03-29T10:28:00;18.40;99.90
33881;DHT22;20172;47.530;10.256;2024-03-29T10:30:29;18.40;99.90
33881;DHT22;20172;47.530;10.256;2024-03-29T10:32:57;18.30;99.90
33881;DHT22;20172;47.530;10.256;2024-03-29T10:35:25;18.40;99.90
33881;DHT22;20172;47.530;10.256;2024-03-29T10:37:52;18.40;99.90
33881;DHT22;20172;47.530;10.256;2024-03-29T10:40:17;18.40;99.90
33881;DHT22;20172;47.530;10.256;2024-03-29T10:42:44;18.60;99.90
33881;DHT22;20172;47.530;10.256;2024-03-29T10:45:11;18.50;99.90
33881;DHT22;20172;47.530;10.256;2024-03-29T10:47:36;18.60;99.90
33881;DHT22;20172;47.530;10.256;2024-03-29T10:50:02;18.50;99.90
33881;DHT22;20172;47.530;10.256;2024-03-29T10:52:31;18.50;99.90
33881;DHT22;20172;47.530;10.256;2024-03-29T10:54:56;18.60;99.90
33881;DHT22;20172;47.530;10.256;2024-03-29T10:57:23;18.60;99.90
33881;DHT22;20172;47.530;10.256;2024-03-29T10:59:54;18.50;99.90
33881;DHT22;20172;47.530;10.256;2024-03-29T11:05:06;18.50;99.90
33881;DHT22;20172;47.530;10.256;2024-03-29T11:07:34;18.70;99.90
33881;DHT22;20172;47.530;10.256;2024-03-29T11:10:02;18.80;99.90
33881;DHT22;20172;47.530;10.256;2024-03-29T11:12:30;18.90;99.90
33881;DHT22;20172;47.530;10.256;2024-03-29T11:15:01;19.10;99.90
33881;DHT22;20172;47.530;10.256;2024-03-29T11:17:29;19.30;99.90
33881;DHT22;20172;47.530;10.256;2024-03-29T11:19:58;19.70;99.90
33881;DHT22;20172;47.530;10.256;2024-03-29T11:22:24;19.90;99.70
33881;DHT22;20172;47.530;10.256;2024-03-29T11:24:51;20.30;99.90
33881;DHT22;20172;47.530;10.256;2024-03-29T11:27:17;20.90;99.90
33881;DHT22;20172;47.530;10.256;2024-03-29T11:29:47;21.30;99.80
33881;DHT22;20172;47.530;10.256;2024-03-29T11:32:15;22.00;98.30
33881;DHT22;20172;47.530;10.256;2024-03-29T11:34:44;22.40;97.10
33881;DHT22;20172;47.530;10.256;2024-03-29T11:37:11;22.70;95.40
33881;DHT22;20172;47.530;10.256;2024-03-29T11:39:37;23.20;96.10
33881;DHT22;20172;47.530;10.256;2024-03-29T11:42:02;23.50;94.50
33881;DHT22;20172;47.530;10.256;2024-03-29T11:44:28;23.90;93.30
33881;DHT22;20172;47.530;10.256;2024-03-29T11:46:58;24.10;91.90
33881;DHT22;20172;47.530;10.256;2024-03-29T11:49:24;24.40;91.50
33881;DHT22;20172;47.530;10.256;2024-03-29T11:51:49;24.70;90.80
33881;DHT22;20172;47.530;10.256;2024-03-29T11:54:15;24.60;89.30
33881;DHT22;20172;47.530;10.256;2024-03-29T11:56:42;24.40;87.80
33881;DHT22;20172;47.530;10.256;2024-03-29T11:59:07;24.30;86.40
33881;DHT22;20172;47.530;10.256;2024-03-29T12:01:33;24.60;89.10
33881;DHT22;20172;47.530;10.256;2024-03-29T12:03:59;25.30;87.80
33881;DHT22;20172;47.530;10.256;2024-03-29T12:06:24;25.70;85.00
33881;DHT22;20172;47.530;10.256;2024-03-29T12:08:52;26.30;81.70
33881;DHT22;20172;47.530;10.256;2024-03-29T12:11:21;27.10;77.80
33881;DHT22;20172;47.530;10.256;2024-03-29T12:13:47;27.90;74.30
33881;DHT22;20172;47.530;10.256;2024-03-29T12:16:12;28.80;70.00
33881;DHT22;20172;47.530;10.256;2024-03-29T12:18:38;29.60;68.20
33881;DHT22;20172;47.530;10.256;2024-03-29T12:21:03;30.20;61.80
33881;DHT22;20172;47.530;10.256;2024-03-29T12:23:29;30.20;61.80
33881;DHT22;20172;47.530;10.256;2024-03-29T12:25:57;31.10;59.30
33881;DHT22;20172;47.530;10.256;2024-03-29T12:28:23;31.80;58.30
33881;DHT22;20172;47.530;10.256;2024-03-29T12:30:48;32.80;58.00
33881;DHT22;20172;47.530;10.256;2024-03-29T12:33:15;33.00;54.80
33881;DHT22;20172;47.530;10.256;2024-03-29T12:35:44;33.10;55.20
33881;DHT22;20172;47.530;10.256;2024-03-29T12:38:13;32.60;54.70
33881;DHT22;20172;47.530;10.256;2024-03-29T12:40:40;32.30;55.00
33881;DHT22;20172;47.530;10.256;2024-03-29T12:43:08;31.60;53.60
33881;DHT22;20172;47.530;10.256;2024-03-29T12:45:34;30.70;55.20
33881;DHT22;20172;47.530;10.256;2024-03-29T12:48:00;29.60;53.10
33881;DHT22;20172;47.530;10.256;2024-03-29T12:50:26;28.70;55.70
33881;DHT22;20172;47.530;10.256;2024-03-29T12:52:56;27.60;53.80
33881;DHT22;20172;47.530;10.256;2024-03-29T12:55:22;26.20;47.60
33881;DHT22;20172;47.530;10.256;2024-03-29T12:57:48;25.60;48.80
33881;DHT22;20172;47.530;10.256;2024-03-29T13:00:14;24.90;47.50
33881;DHT22;20172;47.530;10.256;2024-03-29T13:02:40;24.10;49.60
33881;DHT22;20172;47.530;10.256;2024-03-29T13:05:06;23.30;48.10
33881;DHT22;20172;47.530;10.256;2024-03-29T13:07:32;22.80;48.40
33881;DHT22;20172;47.530;10.256;2024-03-29T13:09:57;22.40;48.80
33881;DHT22;20172;47.530;10.256;2024-03-29T13:12:31;22.00;49.10
33881;DHT22;20172;47.530;10.256;2024-03-29T13:15:01;21.90;48.70
33881;DHT22;20172;47.530;10.256;2024-03-29T13:17:29;21.90;48.50
33881;DHT22;20172;47.530;10.256;2024-03-29T13:19:55;21.80;49.60
33881;DHT22;20172;47.530;10.256;2024-03-29T13:22:20;21.60;49.50
33881;DHT22;20172;47.530;10.256;2024-03-29T13:24:46;21.50;49.50
33881;DHT22;20172;47.530;10.256;2024-03-29T13:27:11;21.50;50.10
33881;DHT22;20172;47.530;10.256;2024-03-29T13:29:38;21.50;49.90
33881;DHT22;20172;47.530;10.256;2024-03-29T13:32:03;21.50;49.90
33881;DHT22;20172;47.530;10.256;2024-03-29T13:34:29;21.30;49.60
33881;DHT22;20172;47.530;10.256;2024-03-29T13:36:54;21.10;49.80
33881;DHT22;20172;47.530;10.256;2024-03-29T13:39:23;21.20;50.10
33881;DHT22;20172;47.530;10.256;2024-03-29T13:41:49;21.30;49.10
33881;DHT22;20172;47.530;10.256;2024-03-29T13:44:15;21.30;50.80
33881;DHT22;20172;47.530;10.256;2024-03-29T13:46:42;21.40;49.80
33881;DHT22;20172;47.530;10.256;2024-03-29T13:49:08;21.40;50.70
33881;DHT22;20172;47.530;10.256;2024-03-29T13:51:34;21.40;48.90
33881;DHT22;20172;47.530;10.256;2024-03-29T13:53:59;21.30;48.90
33881;DHT22;20172;47.530;10.256;2024-03-29T13:56:24;21.30;49.30
33881;DHT22;20172;47.530;10.256;2024-03-29T13:58:50;21.30;50.10
33881;DHT22;20172;47.530;10.256;2024-03-29T14:01:17;21.40;48.60
33881;DHT22;20172;47.530;10.256;2024-03-29T14:03:42;21.30;48.80
33881;DHT22;20172;47.530;10.256;2024-03-29T14:06:09;21.40;48.80
33881;DHT22;20172;47.530;10.256;2024-03-29T14:08:34;21.30;49.10
33881;DHT22;20172;47.530;10.256;2024-03-29T14:11:01;21.30;48.60
33881;DHT22;20172;47.530;10.256;2024-03-29T14:13:26;21.30;49.20
33881;DHT22;20172;47.530;10.256;2024-03-29T14:15:52;21.40;49.30
33881;DHT22;20172;47.530;10.256;2024-03-29T14:18:18;21.30;49.20
33881;DHT22;20172;47.530;10.256;2024-03-29T14:20:43;21.30;49.00
33881;DHT22;20172;47.530;10.256;2024-03-29T14:23:09;21.40;49.30
33881;DHT22;20172;47.530;10.256;2024-03-29T14:25:38;21.50;48.30
33881;DHT22;20172;47.530;10.256;2024-03-29T14:28:03;21.50;48.80
33881;DHT22;20172;47.530;10.256;2024-03-29T14:30:29;21.60;48.60
33881;DHT22;20172;47.530;10.256;2024-03-29T14:32:55;21.70;48.80
33881;DHT22;20172;47.530;10.256;2024-03-29T14:35:21;21.60;48.60
33881;DHT22;20172;47.530;10.256;2024-03-29T14:37:47;21.50;48.10
33881;DHT22;20172;47.530;10.256;2024-03-29T14:40:13;21.40;48.10
33881;DHT22;20172;47.530;10.256;2024-03-29T14:42:41;21.30;48.60
33881;DHT22;20172;47.530;10.256;2024-03-29T14:45:07;21.40;48.20
33881;DHT22;20172;47.530;10.256;2024-03-29T14:47:33;21.30;47.10
33881;DHT22;20172;47.530;10.256;2024-03-29T14:50:02;21.30;47.10
33881;DHT22;20172;47.530;10.256;2024-03-29T14:52:33;21.20;46.80
33881;DHT22;20172;47.530;10.256;2024-03-29T14:54:59;21.00;47.10
33881;DHT22;20172;47.530;10.256;2024-03-29T14:57:25;21.00;47.00
33881;DHT22;20172;47.530;10.256;2024-03-29T14:59:50;21.10;47.40
33881;DHT22;20172;47.530;10.256;2024-03-29T15:02:16;21.10;47.60
33881;DHT22;20172;47.530;10.256;2024-03-29T15:04:41;21.10;47.40
33881;DHT22;20172;47.530;10.256;2024-03-29T15:07:07;21.40;47.80
33881;DHT22;20172;47.530;10.256;2024-03-29T15:09:33;21.50;48.30
33881;DHT22;20172;47.530;10.256;2024-03-29T15:12:00;21.60;47.50
33881;DHT22;20172;47.530;10.256;2024-03-29T15:14:25;21.70;48.30
33881;DHT22;20172;47.530;10.256;2024-03-29T15:16:51;21.70;48.20
33881;DHT22;20172;47.530;10.256;2024-03-29T15:19:16;21.70;48.00